Time,TemperatureF,DewpointF,PressureIn,WindDirection,WindDirectionDegrees,WindSpeedMPH,WindSpeedGustMPH,Humidity,HourlyPrecipIn,Conditions,Clouds,dailyrainin,SoftwareType,DateUTC
2013-06-11 08:02:00,62.0,58.0,29.96,WSW,247,0.0,0.0,87,0.00,,,0.02,,2013-06-11 12:02:00,
2013-06-11 08:12:00,62.0,58.0,29.96,WSW,247,0.0,0.0,87,0.18,,,0.20,,2013-06-11 12:12:00,
2013-06-11 08:22:00,62.0,58.0,29.96,WSW,247,0.0,0.0,87,0.18,,,0.20,,2013-06-11 12:22:00,
2013-06-11 08:32:00,62.0,58.0,29.96,WSW,247,0.0,0.0,87,0.00,,,0.20,,2013-06-11 12:32:00,
2013-06-11 08:42:00,62.0,58.0,29.96,WSW,247,0.0,0.0,88,0.00,,,0.20,,2013-06-11 12:42:00,
2013-06-11 08:52:00,62.0,58.0,29.96,WSW,247,0.0,0.0,88,0.00,,,0.20,,2013-06-11 12:52:00,
2013-06-11 09:02:00,62.0,58.0,29.97,WNW,292,0.0,0.0,88,0.00,,,0.20,,2013-06-11 13:02:00,
2013-06-11 09:12:00,62.0,58.0,29.97,WNW,292,0.0,0.0,88,0.00,,,0.20,,2013-06-11 13:12:00,
2013-06-11 09:22:00,62.0,58.0,29.97,SSW,202,0.0,1.0,88,0.00,,,0.20,,2013-06-11 13:22:00,
2013-06-11 09:32:00,63.0,59.0,29.97,WSW,247,0.0,0.0,88,0.00,,,0.20,,2013-06-11 13:32:00,
2013-06-11 09:42:00,63.0,59.0,29.97,WSW,247,0.0,0.0,88,0.00,,,0.20,,2013-06-11 13:42:00,
2013-06-11 09:52:00,64.0,60.0,29.97,WSW,247,0.0,0.0,88,0.00,,,0.20,,2013-06-11 13:52:00,
2013-06-11 10:02:00,65.0,61.0,29.98,SW,225,0.0,0.0,88,0.00,,,0.20,,2013-06-11 14:02:00,
2013-06-11 10:12:00,65.0,61.0,29.98,SW,225,0.0,0.0,88,0.00,,,0.20,,2013-06-11 14:12:00,
2013-06-11 10:22:00,66.0,62.0,29.98,WNW,292,0.0,1.0,88,0.00,,,0.20,,2013-06-11 14:22:00,
2013-06-11 10:32:00,67.0,63.0,29.98,NW,315,0.0,0.0,88,0.00,,,0.20,,2013-06-11 14:32:00,
2013-06-11 10:42:00,68.0,64.0,29.98,WSW,247,0.0,0.0,88,0.00,,,0.20,,2013-06-11 14:42:00,
2013-06-11 10:52:00,68.0,64.0,29.98,WSW,247,0.0,0.0,88,0.00,,,0.20,,2013-06-11 14:52:00,
2013-06-11 11:02:00,70.0,66.0,29.98,SW,225,2.0,2.0,86,0.00,,,0.20,,2013-06-11 15:02:00,
2013-06-11 11:12:00,70.0,65.0,29.98,SW,225,2.0,2.0,85,0.00,,,0.20,,2013-06-11 15:12:00,
2013-06-11 11:22:00,70.0,65.0,29.98,SW,225,2.0,2.0,85,0.00,,,0.20,,2013-06-11 15:22:00,
2013-06-11 11:33:00,70.0,65.0,29.98,NW,315,0.0,0.0,83,0.00,,,0.20,,2013-06-11 15:33:00,
2013-06-11 11:43:00,71.0,66.0,29.98,NW,315,0.0,0.0,83,0.00,,,0.20,,2013-06-11 15:43:00,
2013-06-11 11:53:00,71.0,66.0,29.98,NW,315,0.0,0.0,83,0.00,,,0.20,,2013-06-11 15:53:00,
2013-06-11 12:03:00,70.0,64.0,29.98,NW,315,0.0,0.0,82,0.00,,,0.20,,2013-06-11 16:03:00,
2013-06-11 12:12:00,70.0,64.0,29.98,NW,315,0.0,0.0,82,0.00,,,0.20,,2013-06-11 16:12:00,
2013-06-11 12:22:00,70.0,64.0,29.98,NW,315,0.0,0.0,81,0.00,,,0.20,,2013-06-11 16:22:00,
2013-06-11 12:33:00,70.0,64.0,29.98,West,270,1.0,1.0,80,0.00,,,0.20,,2013-06-11 16:33:00,
2013-06-11 12:42:00,70.0,63.0,29.97,West,270,0.0,1.0,78,0.00,,,0.20,,2013-06-11 16:42:00,
2013-06-11 12:52:00,70.0,63.0,29.97,West,270,0.0,1.0,78,0.00,,,0.20,,2013-06-11 16:52:00,
2013-06-11 13:02:00,70.0,62.0,29.97,SW,225,0.0,3.0,75,0.00,,,0.20,,2013-06-11 17:02:00,
2013-06-11 13:22:00,70.0,62.0,29.97,SW,225,0.0,0.0,75,0.00,,,0.20,,2013-06-11 17:22:00,
2013-06-11 13:32:00,70.0,61.0,29.96,SE,135,1.0,1.0,73,0.00,,,0.20,,2013-06-11 17:32:00,
2013-06-11 13:43:00,69.0,60.0,29.96,NNW,337,0.0,1.0,73,0.00,,,0.20,,2013-06-11 17:43:00,
2013-06-11 13:52:00,69.0,60.0,29.96,NNW,337,0.0,1.0,73,0.00,,,0.20,,2013-06-11 17:52:00,
2013-06-11 14:02:00,70.0,60.0,29.96,SW,225,0.0,0.0,70,0.00,,,0.20,,2013-06-11 18:02:00,
2013-06-11 14:22:00,71.0,61.0,29.96,SW,225,0.0,0.0,70,0.00,,,0.20,,2013-06-11 18:22:00,
2013-06-11 14:33:00,71.0,60.0,29.95,South,180,0.0,0.0,68,0.00,,,0.20,,2013-06-11 18:33:00,
2013-06-11 14:43:00,71.0,60.0,29.95,SSE,157,3.0,3.0,68,0.00,,,0.20,,2013-06-11 18:43:00,
2013-06-11 14:52:00,71.0,60.0,29.95,SSE,157,3.0,3.0,68,0.00,,,0.20,,2013-06-11 18:52:00,
2013-06-11 15:03:00,73.0,61.0,29.95,South,180,0.0,3.0,65,0.00,,,0.20,,2013-06-11 19:03:00,
2013-06-11 15:22:00,73.0,61.0,29.94,South,180,0.0,0.0,65,0.00,,,0.20,,2013-06-11 19:22:00,
2013-06-11 15:33:00,73.0,61.0,29.95,South,180,0.0,0.0,65,0.00,,,0.20,,2013-06-11 19:33:00,
2013-06-11 16:03:00,75.0,62.0,29.94,NNW,337,0.0,0.0,63,0.00,,,0.20,,2013-06-11 20:03:00,
2013-06-11 16:22:00,76.0,62.0,29.94,NNW,337,0.0,0.0,63,0.00,,,0.20,,2013-06-11 20:22:00,
2013-06-11 16:32:00,77.0,63.0,29.94,NNW,337,0.0,0.0,63,0.00,,,0.20,,2013-06-11 20:32:00,
2013-06-11 16:42:00,77.0,63.0,29.94,NNW,337,0.0,0.0,63,0.00,,,0.20,,2013-06-11 20:42:00,
2013-06-11 16:52:00,77.0,63.0,29.94,NNW,337,0.0,0.0,63,0.00,,,0.20,,2013-06-11 20:52:00,
2013-06-11 17:02:00,80.0,66.0,29.92,West,270,0.0,0.0,62,0.00,,,0.20,,2013-06-11 21:02:00,
2013-06-11 17:12:00,80.0,66.0,29.92,West,270,0.0,0.0,62,0.00,,,0.20,,2013-06-11 21:12:00,
2013-06-11 17:22:00,80.0,65.0,29.91,West,270,0.0,0.0,61,0.00,,,0.20,,2013-06-11 21:22:00,
2013-06-11 17:33:00,80.0,65.0,29.93,West,270,0.0,0.0,61,0.00,,,0.20,,2013-06-11 21:33:00,
2013-06-11 17:42:00,80.0,65.0,29.94,NW,315,1.0,1.0,61,0.00,,,0.20,,2013-06-11 21:42:00,
2013-06-11 17:53:00,80.0,65.0,29.94,NW,315,1.0,1.0,61,0.00,,,0.20,,2013-06-11 21:53:00,
2013-06-11 18:03:00,79.0,65.0,29.92,SSE,157,0.0,0.0,62,0.00,,,0.20,,2013-06-11 22:03:00,
2013-06-11 18:12:00,79.0,65.0,29.92,SSE,157,0.0,0.0,62,0.00,,,0.20,,2013-06-11 22:12:00,
2013-06-11 18:22:00,79.0,65.0,29.92,West,270,0.0,0.0,62,0.00,,,0.20,,2013-06-11 22:22:00,
2013-06-11 18:33:00,78.0,64.0,29.87,South,180,0.0,0.0,63,0.00,,,0.18,,2013-06-11 22:33:00,
2013-06-11 18:42:00,78.0,64.0,29.87,South,180,0.0,0.0,63,0.00,,,0.18,,2013-06-11 22:42:00,
2013-06-11 18:52:00,78.0,65.0,29.89,NW,315,0.0,0.0,65,0.00,,,0.18,,2013-06-11 22:52:00,
2013-06-11 19:02:00,78.0,65.0,29.90,SW,225,0.0,0.0,64,0.00,,,0.18,,2013-06-11 23:02:00,
2013-06-11 19:12:00,77.0,64.0,29.95,NNW,337,0.0,0.0,65,0.00,,,0.18,,2013-06-11 23:12:00,
2013-06-11 19:22:00,77.0,64.0,29.95,NNW,337,0.0,0.0,65,0.00,,,0.18,,2013-06-11 23:22:00,
2013-06-11 19:32:00,76.0,64.0,29.96,SSW,202,3.0,3.0,67,0.00,,,0.18,,2013-06-11 23:32:00,
2013-06-11 19:42:00,76.0,65.0,29.87,SSE,157,0.0,3.0,70,0.00,,,0.18,,2013-06-11 23:42:00,
2013-06-11 19:52:00,76.0,65.0,29.87,SSE,157,0.0,3.0,70,0.00,,,0.18,,2013-06-11 23:52:00,
2013-06-11 20:02:00,73.0,64.0,29.85,ENE,67,0.0,1.0,74,0.02,,,0.20,,2013-06-12 00:02:00,
2013-06-11 20:12:00,72.0,63.0,29.92,North,0,0.0,0.0,73,0.04,,,0.22,,2013-06-12 00:12:00,
2013-06-11 20:22:00,72.0,63.0,29.92,North,0,0.0,0.0,73,0.04,,,0.22,,2013-06-12 00:22:00,
2013-06-11 20:32:00,72.0,64.0,29.92,North,0,0.0,0.0,75,0.04,,,0.22,,2013-06-12 00:32:00,
2013-06-11 20:42:00,72.0,64.0,29.92,North,0,0.0,0.0,75,0.04,,,0.22,,2013-06-12 00:42:00,
2013-06-11 20:52:00,72.0,64.0,29.91,North,0,0.0,0.0,76,0.04,,,0.22,,2013-06-12 00:52:00,
2013-06-11 21:02:00,72.0,64.0,29.90,North,0,0.0,0.0,76,0.02,,,0.22,,2013-06-12 01:02:00,
2013-06-11 21:12:00,72.0,64.0,29.89,North,0,0.0,0.0,77,0.00,,,0.22,,2013-06-12 01:12:00,
2013-06-11 21:22:00,72.0,64.0,29.89,North,0,0.0,0.0,77,0.00,,,0.22,,2013-06-12 01:22:00,
2013-06-11 21:32:00,71.0,63.0,29.90,North,0,0.0,0.0,77,0.00,,,0.22,,2013-06-12 01:32:00,
2013-06-11 21:42:00,71.0,63.0,29.90,North,0,0.0,0.0,77,0.00,,,0.22,,2013-06-12 01:42:00,
2013-06-11 21:52:00,71.0,65.0,29.90,North,0,0.0,0.0,80,0.00,,,0.22,,2013-06-12 01:52:00,
2013-06-11 22:02:00,71.0,65.0,29.89,NE,45,0.0,0.0,81,0.00,,,0.22,,2013-06-12 02:02:00,
2013-06-11 22:12:00,71.0,65.0,29.89,NE,45,0.0,0.0,81,0.00,,,0.22,,2013-06-12 02:12:00,
2013-06-11 22:22:00,71.0,65.0,29.89,WNW,292,0.0,0.0,81,0.00,,,0.22,,2013-06-12 02:22:00,
2013-06-11 22:32:00,71.0,65.0,29.90,WNW,292,0.0,0.0,80,0.00,,,0.22,,2013-06-12 02:32:00,
2013-06-11 22:42:00,71.0,65.0,29.90,WNW,292,0.0,0.0,81,0.00,,,0.22,,2013-06-12 02:42:00,
2013-06-11 22:52:00,71.0,65.0,29.90,WNW,292,0.0,0.0,81,0.00,,,0.22,,2013-06-12 02:52:00,
2013-06-11 23:02:00,70.0,64.0,29.91,WNW,292,0.0,0.0,81,0.00,,,0.22,,2013-06-12 03:02:00,
2013-06-11 23:12:00,70.0,64.0,29.91,WNW,292,0.0,0.0,81,0.00,,,0.22,,2013-06-12 03:12:00,
2013-06-11 23:22:00,70.0,64.0,29.91,WNW,292,0.0,0.0,81,0.00,,,0.22,,2013-06-12 03:22:00,
2013-06-11 23:33:00,70.0,64.0,29.91,WNW,292,0.0,0.0,82,0.00,,,0.22,,2013-06-12 03:33:00,
2013-06-11 23:43:00,69.0,63.0,29.91,WNW,292,0.0,0.0,82,0.00,,,0.22,,2013-06-12 03:43:00,
2013-06-11 23:53:00,69.0,63.0,29.91,WNW,292,0.0,0.0,82,0.00,,,0.22,,2013-06-12 03:53:00,